createdAt,value
2023-03-31T00:03:44.478Z,7.31
2023-03-31T00:08:52.536Z,6.89
2023-03-31T00:13:56.943Z,7.10
2023-03-31T00:19:02.119Z,7.35
2023-03-31T00:24:08.977Z,7.24
2023-03-31T00:29:14.682Z,7.63
2023-03-31T00:34:18.825Z,7.59
2023-03-31T00:39:25.590Z,7.16
2023-03-31T00:44:33.562Z,7.00
2023-03-31T00:49:41.309Z,7.31
2023-03-31T00:54:50.634Z,7.07
2023-03-31T01:00:00.415Z,7.51
2023-03-31T01:05:04.890Z,7.05
2023-03-31T01:10:12.083Z,6.80
2023-03-31T01:15:16.453Z,7.32
2023-03-31T01:20:34.100Z,7.32
2023-03-31T01:26:10.382Z,7.57
2023-03-31T01:31:51.014Z,7.62
2023-03-31T01:37:28.605Z,7.11
2023-03-31T01:42:38.429Z,7.42
2023-03-31T01:47:48.482Z,7.11
2023-03-31T01:53:02.051Z,7.70
2023-03-31T01:58:16.040Z,7.69
2023-03-31T02:03:24.028Z,7.67
2023-03-31T02:08:33.737Z,7.59
2023-03-31T02:13:44.650Z,7.44
2023-03-31T02:18:53.110Z,7.53
2023-03-31T02:23:58.781Z,7.20
2023-03-31T02:29:04.700Z,7.55
2023-03-31T02:34:08.785Z,7.71
2023-03-31T02:39:16.977Z,7.88
2023-03-31T02:44:22.906Z,7.28
2023-03-31T02:49:29.937Z,7.41
2023-03-31T02:55:08.092Z,7.05
2023-03-31T03:00:25.716Z,6.90
2023-03-31T03:05:37.487Z,6.99
2023-03-31T03:11:08.017Z,6.81
2023-03-31T03:16:19.678Z,7.09
2023-03-31T03:21:23.916Z,7.41
2023-03-31T03:26:28.876Z,7.17
2023-03-31T03:31:34.914Z,7.74
2023-03-31T03:36:39.126Z,7.74
2023-03-31T03:41:43.463Z,6.95
2023-03-31T03:46:49.102Z,7.94
2023-03-31T03:51:53.352Z,7.43
2023-03-31T03:56:57.523Z,7.33
2023-03-31T04:02:03.342Z,7.40
2023-03-31T04:07:07.720Z,7.34
2023-03-31T04:12:12.053Z,7.13
2023-03-31T04:17:17.631Z,6.92
2023-03-31T04:22:21.733Z,7.92
2023-03-31T04:27:27.303Z,8.52
2023-03-31T04:32:36.739Z,8.21
2023-03-31T04:37:43.268Z,8.80
2023-03-31T04:42:48.125Z,8.45
2023-03-31T04:47:53.747Z,8.73
2023-03-31T04:52:57.940Z,8.38
2023-03-31T04:58:02.821Z,7.82
2023-03-31T05:03:09.932Z,8.37
2023-03-31T05:08:14.098Z,8.20
2023-03-31T05:13:18.253Z,8.01
2023-03-31T05:18:23.755Z,8.38
2023-03-31T05:23:28.050Z,8.68
2023-03-31T05:28:32.605Z,8.45
2023-03-31T05:33:41.474Z,8.50
2023-03-31T05:38:46.083Z,9.00
2023-03-31T05:43:50.314Z,9.15
2023-03-31T05:48:56.606Z,9.16
2023-03-31T05:54:00.766Z,9.93
2023-03-31T05:59:05.463Z,9.42
2023-03-31T06:04:11.435Z,9.46
2023-03-31T06:09:15.696Z,9.98
2023-03-31T06:14:19.943Z,10.71
2023-03-31T06:19:25.563Z,10.77
2023-03-31T06:24:29.727Z,10.11
2023-03-31T06:29:33.837Z,9.58
2023-03-31T06:34:39.483Z,9.68
2023-03-31T06:39:44.686Z,9.93
2023-03-31T06:44:48.828Z,10.09
2023-03-31T06:49:54.406Z,10.49
2023-03-31T06:54:58.563Z,10.48
2023-03-31T07:00:02.696Z,10.61
2023-03-31T07:05:09.226Z,10.44
2023-03-31T07:10:13.852Z,10.11
2023-03-31T07:15:19.001Z,10.71
2023-03-31T07:20:28.162Z,10.91
2023-03-31T07:25:32.076Z,11.27
2023-03-31T07:30:36.834Z,10.73
2023-03-31T07:35:43.274Z,11.39
2023-03-31T07:40:53.123Z,11.66
2023-03-31T07:46:07.831Z,12.00
2023-03-31T07:51:14.015Z,11.34
2023-03-31T07:56:18.428Z,11.85
2023-03-31T08:01:26.195Z,12.03
2023-03-31T08:06:32.118Z,11.48
2023-03-31T08:11:36.857Z,11.52
2023-03-31T08:16:41.491Z,11.45
2023-03-31T08:21:47.221Z,12.46
2023-03-31T08:26:51.380Z,12.72
2023-03-31T08:31:56.328Z,12.80
2023-03-31T08:37:03.716Z,12.51
2023-03-31T08:42:16.089Z,11.99
2023-03-31T08:47:24.599Z,13.09
2023-03-31T08:52:34.789Z,13.37
2023-03-31T08:57:54.487Z,13.83
2023-03-31T09:03:07.198Z,13.31
2023-03-31T09:08:21.011Z,13.48
2023-03-31T09:13:56.899Z,13.95
2023-03-31T09:19:02.729Z,13.39
2023-03-31T09:24:09.639Z,13.37
2023-03-31T09:29:19.368Z,13.34
2023-03-31T09:34:28.533Z,13.86
2023-03-31T09:39:34.170Z,13.82
2023-03-31T09:44:39.371Z,13.83
2023-03-31T09:49:53.852Z,13.70
2023-03-31T09:55:03.864Z,14.10
2023-03-31T10:00:17.851Z,14.52
2023-03-31T10:05:33.768Z,14.44
2023-03-31T10:10:39.957Z,13.64
2023-03-31T10:15:44.861Z,14.49
2023-03-31T10:20:52.808Z,14.83
2023-03-31T10:25:58.734Z,15.52
2023-03-31T10:31:04.502Z,16.32
2023-03-31T10:36:23.766Z,17.40
2023-03-31T10:41:31.454Z,16.35
2023-03-31T10:46:44.333Z,16.64
2023-03-31T10:51:54.511Z,15.92
2023-03-31T10:57:03.755Z,16.00
2023-03-31T11:02:37.185Z,14.94
2023-03-31T11:07:52.114Z,15.66
2023-03-31T11:13:03.553Z,14.86
2023-03-31T11:18:37.723Z,15.11
2023-03-31T11:23:44.191Z,15.63
2023-03-31T11:29:04.700Z,15.40
2023-03-31T11:34:44.622Z,15.83
2023-03-31T11:40:03.073Z,15.10
2023-03-31T11:45:17.114Z,14.79
2023-03-31T11:50:24.337Z,15.11
2023-03-31T11:55:31.826Z,14.81
2023-03-31T12:00:42.438Z,15.05
2023-03-31T12:05:51.116Z,15.78
2023-03-31T12:11:01.734Z,16.06
2023-03-31T12:16:14.323Z,15.49
2023-03-31T12:21:19.259Z,14.77
2023-03-31T12:26:37.091Z,14.30
2023-03-31T12:31:45.451Z,14.99
2023-03-31T12:37:06.630Z,15.20
2023-03-31T12:42:46.269Z,16.01
2023-03-31T12:48:07.464Z,17.26
2023-03-31T12:53:22.942Z,16.43
2023-03-31T12:58:54.252Z,15.13
2023-03-31T13:04:22.206Z,14.48
2023-03-31T13:09:52.321Z,14.38
2023-03-31T13:20:35.987Z,15.33
2023-03-31T13:25:46.317Z,14.75
2023-03-31T13:31:02.047Z,14.53
2023-03-31T13:36:46.102Z,14.52
2023-03-31T13:41:58.800Z,15.28
2023-03-31T13:47:34.359Z,14.46
2023-03-31T13:52:48.557Z,15.32
2023-03-31T13:58:36.360Z,14.52
2023-03-31T14:03:56.323Z,14.22
2023-03-31T14:09:06.726Z,14.28
2023-03-31T14:14:15.652Z,14.47
2023-03-31T14:19:52.313Z,14.05
2023-03-31T14:25:09.245Z,14.58
2023-03-31T14:30:24.868Z,14.83
2023-03-31T14:35:38.644Z,14.91
2023-03-31T14:40:49.062Z,13.90
2023-03-31T14:46:00.432Z,13.49
2023-03-31T14:51:10.794Z,12.98
2023-03-31T14:56:22.189Z,14.15
2023-03-31T15:01:34.535Z,15.60
2023-03-31T15:06:40.071Z,16.12
2023-03-31T15:11:45.816Z,16.06
2023-03-31T15:16:51.400Z,14.36
2023-03-31T15:21:57.439Z,13.54
2023-03-31T15:27:06.054Z,12.87
2023-03-31T15:32:16.460Z,13.58
2023-03-31T15:37:27.926Z,12.42
2023-03-31T15:42:35.780Z,12.82
2023-03-31T15:47:52.760Z,12.56
2023-03-31T15:52:58.965Z,12.62
2023-03-31T15:58:04.761Z,12.62
2023-03-31T16:03:17.722Z,11.96
2023-03-31T16:08:26.715Z,12.24
2023-03-31T16:13:33.959Z,12.37
2023-03-31T16:18:42.129Z,12.26
2023-03-31T16:23:54.857Z,11.36
2023-03-31T16:29:04.229Z,11.27
2023-03-31T16:34:12.761Z,10.53
2023-03-31T16:39:16.936Z,10.83
2023-03-31T16:44:22.677Z,10.95
2023-03-31T16:49:27.424Z,10.62
2023-03-31T16:54:32.099Z,10.74
2023-03-31T16:59:38.047Z,10.69
2023-03-31T17:04:42.894Z,10.39
2023-03-31T17:09:47.490Z,10.56
2023-03-31T17:14:53.069Z,10.90
2023-03-31T17:19:57.590Z,11.90
2023-03-31T17:25:01.780Z,11.04
2023-03-31T17:30:09.813Z,11.58
2023-03-31T17:35:20.597Z,11.22
2023-03-31T17:40:28.316Z,11.09
2023-03-31T17:45:34.896Z,11.14
2023-03-31T17:50:39.450Z,11.44
2023-03-31T17:55:46.180Z,11.37
2023-03-31T18:00:52.229Z,10.73
2023-03-31T18:05:56.442Z,11.08
2023-03-31T18:11:00.815Z,10.31
2023-03-31T18:16:09.697Z,10.73
2023-03-31T18:21:14.831Z,10.79
2023-03-31T18:26:19.476Z,10.75
2023-03-31T18:31:27.038Z,11.09
2023-03-31T18:36:32.476Z,11.27
2023-03-31T18:41:37.502Z,10.93
2023-03-31T18:46:43.497Z,11.04
2023-03-31T18:51:47.585Z,11.69
2023-03-31T18:56:55.384Z,11.07
2023-03-31T19:02:01.084Z,11.36
2023-03-31T19:07:05.394Z,11.37
2023-03-31T19:12:09.601Z,10.89
2023-03-31T19:17:15.239Z,11.04
2023-03-31T19:22:19.438Z,10.36
2023-03-31T19:27:23.881Z,10.76
2023-03-31T19:32:29.672Z,11.14
2023-03-31T19:37:33.906Z,10.31
2023-03-31T19:42:38.724Z,10.42
2023-03-31T19:47:44.288Z,10.82
2023-03-31T19:52:49.969Z,10.18
2023-03-31T19:57:58.107Z,10.17
2023-03-31T20:03:07.135Z,10.66
2023-03-31T20:08:11.662Z,10.87
2023-03-31T20:13:15.918Z,11.06
2023-03-31T20:18:21.495Z,11.05
2023-03-31T20:23:25.624Z,10.49
2023-03-31T20:28:30.216Z,10.51
2023-03-31T20:33:36.424Z,10.39
2023-03-31T20:38:41.754Z,10.77
2023-03-31T20:43:46.463Z,10.69
2023-03-31T20:48:55.081Z,10.60
2023-03-31T20:54:01.467Z,10.62
2023-03-31T20:59:08.175Z,10.72
2023-03-31T21:04:17.026Z,10.29
2023-03-31T21:09:21.374Z,10.38
2023-03-31T21:14:25.464Z,10.25
2023-03-31T21:19:31.930Z,10.18
2023-03-31T21:24:36.377Z,10.76
2023-03-31T21:29:40.542Z,10.27
2023-03-31T21:34:46.224Z,10.46
2023-03-31T21:39:50.410Z,10.22
2023-03-31T21:44:58.938Z,10.30
2023-03-31T21:50:04.628Z,10.52
2023-03-31T21:55:09.536Z,10.22
2023-03-31T22:00:15.858Z,10.81
2023-03-31T22:05:21.886Z,10.89
2023-03-31T22:10:26.050Z,10.92
2023-03-31T22:15:30.786Z,11.80
2023-03-31T22:20:36.992Z,11.67
2023-03-31T22:25:41.239Z,10.78
2023-03-31T22:30:45.520Z,11.30
2023-03-31T22:35:51.132Z,11.10
2023-03-31T22:40:55.514Z,11.40
2023-03-31T22:46:03.907Z,12.20
2023-03-31T22:51:12.072Z,11.84
2023-03-31T22:56:16.357Z,11.43
2023-03-31T23:01:22.605Z,11.92
2023-03-31T23:06:29.214Z,11.83
2023-03-31T23:11:33.408Z,11.10
2023-03-31T23:16:37.601Z,10.74
2023-03-31T23:21:43.229Z,10.74
2023-03-31T23:26:47.560Z,11.45
2023-03-31T23:31:51.829Z,10.83
2023-03-31T23:36:57.328Z,10.41
2023-03-31T23:42:01.522Z,9.97
2023-03-31T23:47:05.942Z,11.16
2023-03-31T23:52:11.460Z,10.42
2023-03-31T23:57:15.548Z,10.12
